createdAt,value
2023-02-06T00:01:35.402Z,-3.90
2023-02-06T00:04:02.431Z,-3.90
2023-02-06T00:06:29.260Z,-3.90
2023-02-06T00:08:56.257Z,-3.90
2023-02-06T00:11:23.472Z,-3.90
2023-02-06T00:13:50.878Z,-3.90
2023-02-06T00:16:22.346Z,-3.90
2023-02-06T00:18:49.729Z,-3.90
2023-02-06T00:21:20.294Z,-3.90
2023-02-06T00:23:47.544Z,-3.90
2023-02-06T00:26:14.795Z,-3.90
2023-02-06T00:28:41.590Z,-3.90
2023-02-06T00:31:09.462Z,-4.00
2023-02-06T00:33:36.644Z,-4.00
2023-02-06T00:36:03.998Z,-4.00
2023-02-06T00:38:31.500Z,-4.00
2023-02-06T00:40:58.544Z,-4.10
2023-02-06T00:43:25.466Z,-4.00
2023-02-06T00:45:56.349Z,-4.10
2023-02-06T00:48:24.821Z,-4.10
2023-02-06T00:50:52.999Z,-4.10
2023-02-06T00:53:20.686Z,-4.10
2023-02-06T00:55:47.614Z,-4.10
2023-02-06T00:58:14.599Z,-4.10
2023-02-06T01:00:41.453Z,-4.00
2023-02-06T01:03:08.378Z,-4.10
2023-02-06T01:05:35.515Z,-4.10
2023-02-06T01:08:04.430Z,-4.10
2023-02-06T01:10:31.840Z,-4.10
2023-02-06T01:12:58.729Z,-4.00
2023-02-06T01:15:25.926Z,-4.00
2023-02-06T01:17:52.834Z,-4.10
2023-02-06T01:20:19.835Z,-4.00
2023-02-06T01:22:46.694Z,-4.00
2023-02-06T01:25:13.687Z,-4.00
2023-02-06T01:27:40.656Z,-4.00
2023-02-06T01:30:08.269Z,-4.00
2023-02-06T01:32:39.409Z,-4.00
2023-02-06T01:35:08.163Z,-4.00
2023-02-06T01:37:36.673Z,-4.00
2023-02-06T01:40:05.861Z,-4.00
2023-02-06T01:42:38.054Z,-4.00
2023-02-06T01:45:43.826Z,-4.00
2023-02-06T01:48:15.024Z,-4.00
2023-02-06T01:50:46.350Z,-4.00
2023-02-06T01:53:16.717Z,-4.00
2023-02-06T01:55:45.690Z,-4.00
2023-02-06T01:58:18.087Z,-4.10
2023-02-06T02:00:45.661Z,-4.10
2023-02-06T02:03:12.907Z,-4.00
2023-02-06T02:05:42.186Z,-4.00
2023-02-06T02:08:16.528Z,-4.00
2023-02-06T02:10:43.847Z,-4.00
2023-02-06T02:13:10.698Z,-4.00
2023-02-06T02:15:47.051Z,-4.00
2023-02-06T02:18:24.475Z,-4.10
2023-02-06T02:20:59.999Z,-4.10
2023-02-06T02:23:49.465Z,-4.10
2023-02-06T02:26:45.176Z,-4.00
2023-02-06T02:29:32.911Z,-4.00
2023-02-06T02:32:28.229Z,-4.00
2023-02-06T02:35:15.201Z,-4.00
2023-02-06T02:37:56.807Z,-3.90
2023-02-06T02:40:49.056Z,-3.90
2023-02-06T02:43:22.971Z,-3.90
2023-02-06T02:46:00.378Z,-3.90
2023-02-06T02:48:38.485Z,-3.90
2023-02-06T02:51:06.149Z,-3.80
2023-02-06T02:53:33.052Z,-3.80
2023-02-06T02:56:00.273Z,-3.80
2023-02-06T02:58:33.635Z,-3.80
2023-02-06T03:01:09.082Z,-3.70
2023-02-06T03:03:39.644Z,-3.70
2023-02-06T03:06:30.902Z,-3.70
2023-02-06T03:09:03.869Z,-3.70
2023-02-06T03:11:30.958Z,-3.70
2023-02-06T03:14:01.554Z,-3.70
2023-02-06T03:17:17.862Z,-3.70
2023-02-06T03:19:53.476Z,-3.70
2023-02-06T03:22:21.398Z,-3.70
2023-02-06T03:24:51.382Z,-3.70
2023-02-06T03:27:20.159Z,-3.80
2023-02-06T03:29:49.206Z,-3.80
2023-02-06T03:32:24.111Z,-3.80
2023-02-06T03:34:57.642Z,-3.80
2023-02-06T03:37:25.256Z,-3.80
2023-02-06T03:39:52.286Z,-3.90
2023-02-06T03:42:20.868Z,-3.90
2023-02-06T03:45:01.680Z,-3.90
2023-02-06T03:47:30.586Z,-3.90
2023-02-06T03:50:00.342Z,-4.00
2023-02-06T03:52:33.887Z,-4.00
2023-02-06T03:55:12.424Z,-4.00
2023-02-06T03:57:41.916Z,-4.10
2023-02-06T04:00:09.574Z,-4.10
2023-02-06T04:02:37.207Z,-4.10
2023-02-06T04:05:04.275Z,-4.10
2023-02-06T04:07:33.266Z,-4.10
2023-02-06T04:10:00.119Z,-4.20
2023-02-06T04:12:28.120Z,-4.20
2023-02-06T04:14:54.964Z,-4.20
2023-02-06T04:17:40.645Z,-4.20
2023-02-06T04:20:09.453Z,-4.20
2023-02-06T04:22:36.341Z,-4.20
2023-02-06T04:25:03.281Z,-4.20
2023-02-06T04:27:30.144Z,-4.20
2023-02-06T04:29:56.961Z,-4.20
2023-02-06T04:32:24.057Z,-4.20
2023-02-06T04:34:51.083Z,-4.10
2023-02-06T04:37:17.907Z,-4.10
2023-02-06T04:39:44.756Z,-4.10
2023-02-06T04:42:11.590Z,-4.10
2023-02-06T04:44:38.599Z,-4.10
2023-02-06T04:47:05.690Z,-4.00
2023-02-06T04:49:32.733Z,-4.00
2023-02-06T04:51:59.807Z,-4.00
2023-02-06T04:54:26.693Z,-4.00
2023-02-06T04:56:53.538Z,-4.00
2023-02-06T04:59:20.370Z,-3.90
2023-02-06T05:01:47.355Z,-3.90
2023-02-06T05:04:14.211Z,-3.90
2023-02-06T05:06:41.125Z,-3.90
2023-02-06T05:09:08.258Z,-3.90
2023-02-06T05:11:35.178Z,-3.80
2023-02-06T05:14:02.027Z,-3.80
2023-02-06T05:16:28.909Z,-3.80
2023-02-06T05:18:57.220Z,-3.80
2023-02-06T05:21:25.453Z,-3.80
2023-02-06T05:23:52.489Z,-3.80
2023-02-06T05:26:19.932Z,-3.80
2023-02-06T05:28:47.475Z,-3.80
2023-02-06T05:31:19.733Z,-3.80
2023-02-06T05:33:51.089Z,-3.80
2023-02-06T05:36:20.146Z,-3.80
2023-02-06T05:38:48.091Z,-3.80
2023-02-06T05:41:15.795Z,-3.80
2023-02-06T05:43:43.026Z,-3.80
2023-02-06T05:46:11.347Z,-3.70
2023-02-06T05:48:38.628Z,-3.70
2023-02-06T05:51:05.722Z,-3.70
2023-02-06T05:53:32.658Z,-3.70
2023-02-06T05:55:59.545Z,-3.70
2023-02-06T05:58:26.504Z,-3.70
2023-02-06T06:00:53.342Z,-3.60
2023-02-06T06:03:20.235Z,-3.70
2023-02-06T06:05:47.287Z,-3.70
2023-02-06T06:08:15.119Z,-3.70
2023-02-06T06:10:42.172Z,-3.60
2023-02-06T06:13:09.175Z,-3.60
2023-02-06T06:15:36.444Z,-3.60
2023-02-06T06:18:03.951Z,-3.60
2023-02-06T06:20:30.836Z,-3.60
2023-02-06T06:22:57.669Z,-3.60
2023-02-06T06:25:24.535Z,-3.60
2023-02-06T06:27:51.426Z,-3.60
2023-02-06T06:30:18.474Z,-3.60
2023-02-06T06:32:45.334Z,-3.60
2023-02-06T06:35:12.199Z,-3.60
2023-02-06T06:37:39.030Z,-3.60
2023-02-06T06:40:06.143Z,-3.60
2023-02-06T06:42:32.981Z,-3.60
2023-02-06T06:44:59.866Z,-3.60
2023-02-06T06:47:26.778Z,-3.60
2023-02-06T06:49:53.584Z,-3.50
2023-02-06T06:52:25.456Z,-3.60
2023-02-06T06:54:53.123Z,-3.60
2023-02-06T06:57:20.938Z,-3.50
2023-02-06T06:59:47.870Z,-3.50
2023-02-06T07:02:15.257Z,-3.50
2023-02-06T07:04:42.413Z,-3.40
2023-02-06T07:07:10.234Z,-3.40
2023-02-06T07:09:37.082Z,-3.30
2023-02-06T07:12:04.571Z,-3.30
2023-02-06T07:14:31.492Z,-3.20
2023-02-06T07:16:59.999Z,-3.10
2023-02-06T07:19:26.847Z,-3.10
2023-02-06T07:21:54.166Z,-3.00
2023-02-06T07:24:21.118Z,-2.80
2023-02-06T07:26:47.980Z,-2.70
2023-02-06T07:29:14.797Z,-2.50
2023-02-06T07:31:41.890Z,-2.30
2023-02-06T07:34:08.786Z,-2.20
2023-02-06T07:36:35.823Z,-1.90
2023-02-06T07:39:04.228Z,-1.80
2023-02-06T07:41:31.047Z,-1.60
2023-02-06T07:43:57.947Z,-1.40
2023-02-06T07:46:24.893Z,-1.10
2023-02-06T07:48:51.783Z,-0.80
2023-02-06T07:51:18.715Z,-0.30
2023-02-06T07:53:45.613Z,0.40
2023-02-06T07:56:15.035Z,1.20
2023-02-06T07:58:42.156Z,1.90
2023-02-06T08:01:09.503Z,2.20
2023-02-06T08:03:36.965Z,2.50
2023-02-06T08:06:11.993Z,2.80
2023-02-06T08:08:39.148Z,3.00
2023-02-06T08:11:10.879Z,2.90
2023-02-06T08:13:37.854Z,2.80
2023-02-06T08:16:11.546Z,2.80
2023-02-06T08:18:38.790Z,2.60
2023-02-06T08:21:08.157Z,2.40
2023-02-06T08:23:35.042Z,2.40
2023-02-06T08:26:07.727Z,3.40
2023-02-06T08:28:35.547Z,4.40
2023-02-06T08:31:20.697Z,4.80
2023-02-06T08:33:49.267Z,5.10
2023-02-06T08:36:17.824Z,5.20
2023-02-06T08:38:44.933Z,5.20
2023-02-06T08:41:24.687Z,5.10
2023-02-06T08:43:54.492Z,5.50
2023-02-06T08:46:24.615Z,6.40
2023-02-06T08:48:59.820Z,6.80
2023-02-06T08:51:35.319Z,6.80
2023-02-06T08:54:05.647Z,6.10
2023-02-06T08:56:34.459Z,5.70
2023-02-06T08:59:02.144Z,5.30
2023-02-06T09:01:31.549Z,5.10
2023-02-06T09:04:00.766Z,4.80
2023-02-06T09:06:28.702Z,4.60
2023-02-06T09:08:56.993Z,4.60
2023-02-06T09:11:25.768Z,5.20
2023-02-06T09:13:55.856Z,5.70
2023-02-06T09:16:23.428Z,6.20
2023-02-06T09:18:53.929Z,6.90
2023-02-06T09:21:24.294Z,7.60
2023-02-06T09:23:54.002Z,8.30
2023-02-06T09:26:23.895Z,8.60
2023-02-06T09:28:58.750Z,9.00
2023-02-06T09:31:27.281Z,9.50
2023-02-06T09:33:54.196Z,9.60
2023-02-06T09:36:22.161Z,9.50
2023-02-06T09:38:51.584Z,9.20
2023-02-06T09:41:22.711Z,8.90
2023-02-06T09:43:57.120Z,9.40
2023-02-06T09:46:29.209Z,10.50
2023-02-06T09:48:58.868Z,11.80
2023-02-06T09:51:57.028Z,12.70
2023-02-06T09:54:29.790Z,13.00
2023-02-06T09:57:08.081Z,13.20
2023-02-06T09:59:45.142Z,13.40
2023-02-06T10:02:39.792Z,13.80
2023-02-06T10:05:20.760Z,13.50
2023-02-06T10:08:10.495Z,12.60
2023-02-06T10:11:21.526Z,11.70
2023-02-06T10:13:50.702Z,11.10
2023-02-06T10:16:45.908Z,10.60
2023-02-06T10:19:37.002Z,9.70
2023-02-06T10:22:12.701Z,9.00
2023-02-06T10:24:57.727Z,8.60
2023-02-06T10:27:24.616Z,8.40
2023-02-06T10:29:51.507Z,8.10
2023-02-06T10:32:27.973Z,8.20
2023-02-06T10:35:18.544Z,7.90
2023-02-06T10:38:15.065Z,7.30
2023-02-06T10:40:56.109Z,6.80
2023-02-06T10:43:33.652Z,7.30
2023-02-06T10:46:05.618Z,7.40
2023-02-06T10:49:09.372Z,7.20
2023-02-06T10:51:42.522Z,7.00
2023-02-06T10:54:23.091Z,6.90
2023-02-06T10:56:52.459Z,7.30
2023-02-06T10:59:28.658Z,7.60
2023-02-06T11:02:12.677Z,7.80
2023-02-06T11:04:44.582Z,8.00
2023-02-06T11:07:38.011Z,8.00
2023-02-06T11:10:07.122Z,7.80
2023-02-06T11:12:41.490Z,7.80
2023-02-06T11:15:39.129Z,7.90
2023-02-06T11:18:08.634Z,7.40
2023-02-06T11:20:38.600Z,6.80
2023-02-06T11:23:16.405Z,6.20
2023-02-06T11:25:44.186Z,5.80
2023-02-06T11:28:18.279Z,5.40
2023-02-06T11:31:06.656Z,4.90
2023-02-06T11:33:41.689Z,4.40
2023-02-06T11:36:23.566Z,4.10
2023-02-06T11:39:02.372Z,3.80
2023-02-06T11:41:30.375Z,3.60
2023-02-06T11:44:06.746Z,3.50
2023-02-06T11:46:36.596Z,3.30
2023-02-06T11:49:20.566Z,3.20
2023-02-06T11:51:56.374Z,3.10
2023-02-06T11:54:32.215Z,2.90
2023-02-06T11:57:08.189Z,2.80
2023-02-06T11:59:54.008Z,2.70
2023-02-06T12:02:32.926Z,2.60
2023-02-06T12:05:11.130Z,2.40
2023-02-06T12:07:57.804Z,2.40
2023-02-06T12:10:26.623Z,2.30
2023-02-06T12:13:21.407Z,2.40
2023-02-06T12:15:53.540Z,2.40
2023-02-06T12:18:34.500Z,2.40
2023-02-06T12:21:24.726Z,2.50
2023-02-06T12:24:03.573Z,2.50
2023-02-06T12:26:35.344Z,2.50
2023-02-06T12:29:22.773Z,2.50
2023-02-06T12:31:53.896Z,2.50
2023-02-06T12:34:25.315Z,2.50
2023-02-06T12:37:14.399Z,2.50
2023-02-06T12:39:43.371Z,2.50
2023-02-06T12:42:28.336Z,2.50
2023-02-06T12:45:12.614Z,2.40
2023-02-06T12:47:49.438Z,2.40
2023-02-06T12:50:32.163Z,2.40
2023-02-06T12:53:13.538Z,2.40
2023-02-06T12:55:40.355Z,2.30
2023-02-06T12:58:28.168Z,2.30
2023-02-06T13:01:29.358Z,2.30
2023-02-06T13:04:04.672Z,2.20
2023-02-06T13:06:57.729Z,2.10
2023-02-06T13:09:35.082Z,2.00
2023-02-06T13:12:20.376Z,1.90
2023-02-06T13:14:51.417Z,1.90
2023-02-06T13:17:26.638Z,1.80
2023-02-06T13:20:17.136Z,1.80
2023-02-06T13:22:45.714Z,1.70
2023-02-06T13:25:30.900Z,1.70
2023-02-06T13:28:22.248Z,1.60
2023-02-06T13:30:59.144Z,1.60
2023-02-06T13:33:38.000Z,1.50
2023-02-06T13:36:10.135Z,1.50
2023-02-06T13:38:39.027Z,1.40
2023-02-06T13:41:14.764Z,1.40
2023-02-06T13:43:56.557Z,1.40
2023-02-06T13:46:33.433Z,1.40
2023-02-06T13:49:30.137Z,1.30
2023-02-06T13:52:00.063Z,1.30
2023-02-06T13:54:45.214Z,1.30
2023-02-06T13:57:25.382Z,1.30
2023-02-06T13:59:55.055Z,1.30
2023-02-06T14:02:30.296Z,1.30
2023-02-06T14:05:03.001Z,1.30
2023-02-06T14:07:50.435Z,1.30
2023-02-06T14:10:23.208Z,1.30
2023-02-06T14:12:50.025Z,1.30
2023-02-06T14:15:36.687Z,1.30
2023-02-06T14:18:32.793Z,1.30
2023-02-06T14:21:20.984Z,1.30
2023-02-06T14:24:08.768Z,1.30
2023-02-06T14:26:41.305Z,1.30
2023-02-06T14:29:44.334Z,1.40
2023-02-06T14:32:14.191Z,1.40
2023-02-06T14:34:49.559Z,1.30
2023-02-06T14:37:25.310Z,1.30
2023-02-06T14:39:57.408Z,1.30
2023-02-06T14:42:28.724Z,1.30
2023-02-06T14:45:01.275Z,1.20
2023-02-06T14:47:31.905Z,1.20
2023-02-06T14:50:00.770Z,1.20
2023-02-06T14:52:31.418Z,1.20
2023-02-06T14:54:58.581Z,1.20
2023-02-06T14:57:31.102Z,1.20
2023-02-06T15:00:01.510Z,1.20
2023-02-06T15:02:30.128Z,1.20
2023-02-06T15:04:58.506Z,1.10
2023-02-06T15:07:38.085Z,1.10
2023-02-06T15:10:15.362Z,1.10
2023-02-06T15:12:50.623Z,1.00
2023-02-06T15:15:20.341Z,0.90
2023-02-06T15:18:03.510Z,0.80
2023-02-06T15:20:43.288Z,0.70
2023-02-06T15:23:25.414Z,0.70
2023-02-06T15:26:10.837Z,0.60
2023-02-06T15:28:38.250Z,0.50
2023-02-06T15:31:15.067Z,0.40
2023-02-06T15:33:41.978Z,0.30
2023-02-06T15:36:39.725Z,0.30
2023-02-06T15:39:09.671Z,0.20
2023-02-06T15:41:37.468Z,0.10
2023-02-06T15:44:29.948Z,0.10
2023-02-06T15:46:58.040Z,0.00
2023-02-06T15:49:38.173Z,0.00
2023-02-06T15:52:05.798Z,-0.10
2023-02-06T15:54:34.054Z,-0.20
2023-02-06T15:57:28.469Z,-0.30
2023-02-06T15:59:58.675Z,-0.40
2023-02-06T16:02:36.942Z,-0.50
2023-02-06T16:05:06.045Z,-0.50
2023-02-06T16:07:36.089Z,-0.60
2023-02-06T16:10:08.970Z,-0.70
2023-02-06T16:12:42.380Z,-0.70
2023-02-06T16:15:27.725Z,-0.80
2023-02-06T16:17:55.370Z,-0.90
2023-02-06T16:20:42.433Z,-0.90
2023-02-06T16:23:51.188Z,-1.00
2023-02-06T16:26:27.502Z,-1.10
2023-02-06T16:29:02.103Z,-1.20
2023-02-06T16:31:31.293Z,-1.20
2023-02-06T16:34:05.545Z,-1.30
2023-02-06T16:36:33.635Z,-1.30
2023-02-06T16:39:04.432Z,-1.40
2023-02-06T16:41:36.181Z,-1.40
2023-02-06T16:44:04.934Z,-1.50
2023-02-06T16:46:31.952Z,-1.50
2023-02-06T16:48:59.949Z,-1.50
2023-02-06T16:51:29.504Z,-1.60
2023-02-06T16:53:57.388Z,-1.60
2023-02-06T16:56:24.652Z,-1.70
2023-02-06T16:58:51.574Z,-1.70
2023-02-06T17:01:25.680Z,-1.80
2023-02-06T17:03:53.371Z,-1.90
2023-02-06T17:06:32.070Z,-1.90
2023-02-06T17:09:03.495Z,-2.00
2023-02-06T17:11:33.778Z,-2.00
2023-02-06T17:14:00.700Z,-2.10
2023-02-06T17:16:28.484Z,-2.20
2023-02-06T17:18:56.652Z,-2.20
2023-02-06T17:21:24.948Z,-2.30
2023-02-06T17:23:52.168Z,-2.40
2023-02-06T17:26:22.347Z,-2.40
2023-02-06T17:28:49.584Z,-2.40
2023-02-06T17:31:16.965Z,-2.50
2023-02-06T17:33:43.876Z,-2.50
2023-02-06T17:36:17.456Z,-2.60
2023-02-06T17:38:44.636Z,-2.60
2023-02-06T17:41:11.511Z,-2.70
2023-02-06T17:43:38.355Z,-2.80
2023-02-06T17:46:06.200Z,-2.80
2023-02-06T17:48:36.709Z,-2.80
2023-02-06T17:51:05.443Z,-2.80
2023-02-06T17:53:32.381Z,-2.90
2023-02-06T17:56:04.623Z,-2.90
2023-02-06T17:58:31.898Z,-3.00
2023-02-06T18:00:58.733Z,-3.00
2023-02-06T18:03:25.667Z,-3.00
2023-02-06T18:06:00.393Z,-3.10
2023-02-06T18:08:28.731Z,-3.10
2023-02-06T18:10:56.193Z,-3.10
2023-02-06T18:13:24.533Z,-3.00
2023-02-06T18:15:56.807Z,-3.00
2023-02-06T18:18:24.826Z,-3.00
2023-02-06T18:20:52.326Z,-3.10
2023-02-06T18:23:19.571Z,-3.10
2023-02-06T18:25:46.455Z,-3.10
2023-02-06T18:28:14.927Z,-3.20
2023-02-06T18:30:42.141Z,-3.20
2023-02-06T18:33:09.459Z,-3.30
2023-02-06T18:35:41.077Z,-3.30
2023-02-06T18:38:10.004Z,-3.30
2023-02-06T18:40:40.925Z,-3.30
2023-02-06T18:43:08.413Z,-3.30
2023-02-06T18:45:37.668Z,-3.30
2023-02-06T18:48:07.233Z,-3.30
2023-02-06T18:50:35.707Z,-3.40
2023-02-06T18:53:02.797Z,-3.40
2023-02-06T18:55:30.219Z,-3.50
2023-02-06T18:57:57.174Z,-3.50
2023-02-06T19:00:24.626Z,-3.60
2023-02-06T19:02:51.528Z,-3.60
2023-02-06T19:05:19.326Z,-3.70
2023-02-06T19:07:51.495Z,-3.80
2023-02-06T19:10:20.286Z,-3.90
2023-02-06T19:12:47.923Z,-3.90
2023-02-06T19:15:16.243Z,-4.00
2023-02-06T19:17:43.505Z,-4.00
2023-02-06T19:20:11.432Z,-4.00
2023-02-06T19:22:38.814Z,-4.10
2023-02-06T19:25:11.356Z,-4.10
2023-02-06T19:27:39.468Z,-4.10
2023-02-06T19:30:08.120Z,-4.10
2023-02-06T19:32:35.618Z,-4.10
2023-02-06T19:35:03.384Z,-4.20
2023-02-06T19:37:30.422Z,-4.20
2023-02-06T19:39:57.499Z,-4.20
2023-02-06T19:42:24.630Z,-4.30
2023-02-06T19:44:54.039Z,-4.30
2023-02-06T19:47:21.384Z,-4.40
2023-02-06T19:49:52.609Z,-4.40
2023-02-06T19:52:19.926Z,-4.40
2023-02-06T19:54:48.805Z,-4.50
2023-02-06T19:57:16.170Z,-4.50
2023-02-06T19:59:43.165Z,-4.50
2023-02-06T20:02:14.716Z,-4.50
2023-02-06T20:04:42.254Z,-4.60
2023-02-06T20:07:09.184Z,-4.60
2023-02-06T20:09:41.164Z,-4.70
2023-02-06T20:12:10.691Z,-4.70
2023-02-06T20:14:37.666Z,-4.70
2023-02-06T20:17:05.660Z,-4.70
2023-02-06T20:19:32.891Z,-4.70
2023-02-06T20:22:00.819Z,-4.80
2023-02-06T20:24:31.191Z,-4.80
2023-02-06T20:27:01.653Z,-4.90
2023-02-06T20:29:32.035Z,-4.90
2023-02-06T20:31:59.624Z,-4.90
2023-02-06T20:34:27.164Z,-4.90
2023-02-06T20:36:55.536Z,-4.90
2023-02-06T20:39:22.571Z,-4.90
2023-02-06T20:41:50.400Z,-4.90
2023-02-06T20:44:18.823Z,-5.00
2023-02-06T20:46:46.268Z,-5.00
2023-02-06T20:49:18.806Z,-5.00
2023-02-06T20:51:46.098Z,-5.00
2023-02-06T20:54:13.136Z,-5.00
2023-02-06T20:56:40.790Z,-5.00
2023-02-06T20:59:08.593Z,-5.00
2023-02-06T21:01:35.578Z,-5.00
2023-02-06T21:04:06.322Z,-5.00
2023-02-06T21:06:35.164Z,-5.00
2023-02-06T21:09:03.425Z,-5.00
2023-02-06T21:11:45.311Z,-5.10
2023-02-06T21:14:12.914Z,-5.10
2023-02-06T21:16:40.576Z,-5.10
2023-02-06T21:19:09.996Z,-5.20
2023-02-06T21:21:37.879Z,-5.20
2023-02-06T21:24:05.747Z,-5.20
2023-02-06T21:26:33.405Z,-5.30
2023-02-06T21:29:02.451Z,-5.30
2023-02-06T21:31:37.468Z,-5.30
2023-02-06T21:34:09.160Z,-5.30
2023-02-06T21:36:37.986Z,-5.20
2023-02-06T21:39:06.225Z,-5.20
2023-02-06T21:41:33.467Z,-5.20
2023-02-06T21:44:00.500Z,-5.20
2023-02-06T21:46:30.900Z,-5.20
2023-02-06T21:48:58.734Z,-5.30
2023-02-06T21:51:25.948Z,-5.20
2023-02-06T21:53:53.048Z,-5.20
2023-02-06T21:56:29.787Z,-5.20
2023-02-06T21:58:57.741Z,-5.20
2023-02-06T22:01:30.026Z,-5.30
2023-02-06T22:03:58.174Z,-5.30
2023-02-06T22:06:26.074Z,-5.30
2023-02-06T22:08:54.391Z,-5.30
2023-02-06T22:11:29.668Z,-5.30
2023-02-06T22:14:01.996Z,-5.30
2023-02-06T22:16:29.266Z,-5.30
2023-02-06T22:18:57.086Z,-5.30
2023-02-06T22:21:26.441Z,-5.40
2023-02-06T22:23:56.811Z,-5.40
2023-02-06T22:26:24.280Z,-5.40
2023-02-06T22:28:51.265Z,-5.40
2023-02-06T22:31:18.149Z,-5.50
2023-02-06T22:33:45.982Z,-5.50
2023-02-06T22:36:19.057Z,-5.50
2023-02-06T22:38:46.924Z,-5.50
2023-02-06T22:41:16.678Z,-5.50
2023-02-06T22:43:45.176Z,-5.50
2023-02-06T22:46:37.668Z,-5.50
2023-02-06T22:49:05.922Z,-5.50
2023-02-06T22:51:33.430Z,-5.50
2023-02-06T22:54:00.753Z,-5.50
2023-02-06T22:56:37.298Z,-5.50
2023-02-06T22:59:19.515Z,-5.40
2023-02-06T23:01:51.889Z,-5.40
2023-02-06T23:04:28.396Z,-5.30
2023-02-06T23:06:55.654Z,-5.30
2023-02-06T23:09:25.678Z,-5.30
2023-02-06T23:11:53.617Z,-5.30
2023-02-06T23:14:20.903Z,-5.30
2023-02-06T23:16:48.004Z,-5.30
2023-02-06T23:19:15.958Z,-5.30
2023-02-06T23:21:43.927Z,-5.30
2023-02-06T23:24:11.467Z,-5.40
2023-02-06T23:26:42.298Z,-5.50
2023-02-06T23:29:10.482Z,-5.50
2023-02-06T23:31:37.588Z,-5.50
2023-02-06T23:34:04.461Z,-5.60
2023-02-06T23:36:31.444Z,-5.60
2023-02-06T23:39:01.278Z,-5.60
2023-02-06T23:41:28.974Z,-5.70
2023-02-06T23:43:57.985Z,-5.70
2023-02-06T23:46:26.048Z,-5.70
2023-02-06T23:48:53.251Z,-5.70
2023-02-06T23:51:21.248Z,-5.80
2023-02-06T23:53:49.023Z,-5.80
2023-02-06T23:56:19.415Z,-5.80
2023-02-06T23:58:46.537Z,-5.80
